sensor_id;sensor_type;location;lat;lon;timestamp;temperature;humidity
1878;DHT22;939;51.426;6.972;2023-07-22T08:06:23;18.20;99.90
1878;DHT22;939;51.426;6.972;2023-07-22T08:08:53;18.30;99.90
1878;DHT22;939;51.426;6.972;2023-07-22T08:11:21;18.10;99.90
1878;DHT22;939;51.426;6.972;2023-07-22T08:13:48;18.30;99.90
1878;DHT22;939;51.426;6.972;2023-07-22T08:16:16;18.30;99.90
1878;DHT22;939;51.426;6.972;2023-07-22T08:18:43;18.40;99.90
1878;DHT22;939;51.426;6.972;2023-07-22T08:21:12;18.40;99.90
1878;DHT22;939;51.426;6.972;2023-07-22T08:23:41;18.40;99.90
1878;DHT22;939;51.426;6.972;2023-07-22T08:26:11;18.50;99.90
1878;DHT22;939;51.426;6.972;2023-07-22T08:28:38;18.60;99.90
1878;DHT22;939;51.426;6.972;2023-07-22T08:31:08;18.60;99.90
1878;DHT22;939;51.426;6.972;2023-07-22T08:33:35;18.70;99.90
1878;DHT22;939;51.426;6.972;2023-07-22T08:36:02;18.70;99.90
1878;DHT22;939;51.426;6.972;2023-07-22T08:38:31;18.80;99.90
1878;DHT22;939;51.426;6.972;2023-07-22T08:41:00;18.80;99.90
1878;DHT22;939;51.426;6.972;2023-07-22T08:43:29;18.90;99.90
1878;DHT22;939;51.426;6.972;2023-07-22T08:46:00;19.00;99.90
1878;DHT22;939;51.426;6.972;2023-07-22T08:48:30;19.10;99.90
1878;DHT22;939;51.426;6.972;2023-07-22T08:51:03;19.00;99.90
1878;DHT22;939;51.426;6.972;2023-07-22T08:53:30;19.10;99.90
1878;DHT22;939;51.426;6.972;2023-07-22T08:56:00;19.20;99.90
1878;DHT22;939;51.426;6.972;2023-07-22T08:58:29;19.30;99.90
1878;DHT22;939;51.426;6.972;2023-07-22T09:00:56;19.40;99.90
1878;DHT22;939;51.426;6.972;2023-07-22T09:03:24;19.60;99.90
1878;DHT22;939;51.426;6.972;2023-07-22T09:05:51;19.80;99.90
1878;DHT22;939;51.426;6.972;2023-07-22T09:08:19;19.90;99.90
1878;DHT22;939;51.426;6.972;2023-07-22T09:10:46;20.10;99.90
1878;DHT22;939;51.426;6.972;2023-07-22T09:13:18;20.20;99.90
1878;DHT22;939;51.426;6.972;2023-07-22T09:15:46;20.20;99.90
1878;DHT22;939;51.426;6.972;2023-07-22T09:18:14;20.30;99.90
1878;DHT22;939;51.426;6.972;2023-07-22T09:20:41;20.30;99.90
1878;DHT22;939;51.426;6.972;2023-07-22T09:23:08;20.40;99.90
1878;DHT22;939;51.426;6.972;2023-07-22T09:25:36;20.50;99.90
1878;DHT22;939;51.426;6.972;2023-07-22T09:28:03;20.50;99.70
1878;DHT22;939;51.426;6.972;2023-07-22T09:30:33;20.40;99.90
1878;DHT22;939;51.426;6.972;2023-07-22T09:33:02;20.20;99.90
1878;DHT22;939;51.426;6.972;2023-07-22T09:35:30;20.10;99.90
1878;DHT22;939;51.426;6.972;2023-07-22T09:37:58;20.10;99.90
1878;DHT22;939;51.426;6.972;2023-07-22T09:40:26;20.40;99.90
1878;DHT22;939;51.426;6.972;2023-07-22T09:42:54;20.50;99.30
1878;DHT22;939;51.426;6.972;2023-07-22T09:45:23;20.40;98.20
1878;DHT22;939;51.426;6.972;2023-07-22T09:47:53;20.40;99.00
1878;DHT22;939;51.426;6.972;2023-07-22T09:50:23;20.50;98.40
1878;DHT22;939;51.426;6.972;2023-07-22T09:52:51;20.70;99.90
1878;DHT22;939;51.426;6.972;2023-07-22T09:55:20;20.80;98.50
1878;DHT22;939;51.426;6.972;2023-07-22T09:57:52;20.80;98.10
1878;DHT22;939;51.426;6.972;2023-07-22T10:00:20;21.00;97.80
1878;DHT22;939;51.426;6.972;2023-07-22T10:02:48;21.00;97.50
1878;DHT22;939;51.426;6.972;2023-07-22T10:05:18;21.00;97.10
1878;DHT22;939;51.426;6.972;2023-07-22T10:07:47;21.20;98.80
1878;DHT22;939;51.426;6.972;2023-07-22T10:10:16;21.40;99.90
1878;DHT22;939;51.426;6.972;2023-07-22T10:12:43;21.60;96.50
1878;DHT22;939;51.426;6.972;2023-07-22T10:15:11;21.90;97.30
1878;DHT22;939;51.426;6.972;2023-07-22T10:17:39;21.90;95.70
1878;DHT22;939;51.426;6.972;2023-07-22T10:20:07;22.20;95.10
1878;DHT22;939;51.426;6.972;2023-07-22T10:22:37;22.30;95.20
1878;DHT22;939;51.426;6.972;2023-07-22T10:25:05;22.40;94.20
1878;DHT22;939;51.426;6.972;2023-07-22T10:27:34;22.70;93.40
1878;DHT22;939;51.426;6.972;2023-07-22T10:30:03;22.80;93.80
1878;DHT22;939;51.426;6.972;2023-07-22T10:32:34;22.80;93.30
1878;DHT22;939;51.426;6.972;2023-07-22T10:35:02;22.90;91.40
1878;DHT22;939;51.426;6.972;2023-07-22T10:37:30;23.40;91.70
1878;DHT22;939;51.426;6.972;2023-07-22T10:40:17;23.60;88.80
1878;DHT22;939;51.426;6.972;2023-07-22T10:42:51;24.10;87.40
1878;DHT22;939;51.426;6.972;2023-07-22T10:45:29;24.00;86.00
1878;DHT22;939;51.426;6.972;2023-07-22T10:48:04;24.00;87.40
1878;DHT22;939;51.426;6.972;2023-07-22T10:50:53;24.10;83.10
1878;DHT22;939;51.426;6.972;2023-07-22T10:53:28;24.70;79.80
1878;DHT22;939;51.426;6.972;2023-07-22T10:56:19;25.40;79.70
1878;DHT22;939;51.426;6.972;2023-07-22T10:58:57;26.20;74.20
1878;DHT22;939;51.426;6.972;2023-07-22T11:01:31;25.80;72.30
1878;DHT22;939;51.426;6.972;2023-07-22T11:04:21;26.10;68.00
1878;DHT22;939;51.426;6.972;2023-07-22T11:06:56;26.80;65.90
1878;DHT22;939;51.426;6.972;2023-07-22T11:09:37;27.50;66.50
1878;DHT22;939;51.426;6.972;2023-07-22T11:12:07;27.90;57.10
1878;DHT22;939;51.426;6.972;2023-07-22T11:14:35;28.60;57.50
1878;DHT22;939;51.426;6.972;2023-07-22T11:17:05;29.30;52.10
1878;DHT22;939;51.426;6.972;2023-07-22T11:19:34;29.90;51.20
1878;DHT22;939;51.426;6.972;2023-07-22T11:22:01;30.40;47.00
1878;DHT22;939;51.426;6.972;2023-07-22T11:24:28;30.70;45.30
1878;DHT22;939;51.426;6.972;2023-07-22T11:26:55;30.20;42.10
1878;DHT22;939;51.426;6.972;2023-07-22T11:29:24;29.80;39.90
1878;DHT22;939;51.426;6.972;2023-07-22T11:31:51;30.20;41.30
1878;DHT22;939;51.426;6.972;2023-07-22T11:34:19;29.90;35.60
1878;DHT22;939;51.426;6.972;2023-07-22T11:36:48;30.20;36.60
1878;DHT22;939;51.426;6.972;2023-07-22T11:39:17;30.30;35.80
1878;DHT22;939;51.426;6.972;2023-07-22T11:41:45;30.80;34.10
1878;DHT22;939;51.426;6.972;2023-07-22T11:44:13;31.00;32.10
1878;DHT22;939;51.426;6.972;2023-07-22T11:46:53;29.90;30.00
1878;DHT22;939;51.426;6.972;2023-07-22T11:49:25;28.90;34.90
1878;DHT22;939;51.426;6.972;2023-07-22T11:51:56;28.30;36.80
1878;DHT22;939;51.426;6.972;2023-07-22T11:54:23;28.30;36.80
1878;DHT22;939;51.426;6.972;2023-07-22T11:56:50;27.70;34.60
1878;DHT22;939;51.426;6.972;2023-07-22T11:59:17;27.70;35.20
1878;DHT22;939;51.426;6.972;2023-07-22T12:01:45;27.20;39.00
1878;DHT22;939;51.426;6.972;2023-07-22T12:04:14;27.20;39.60
1878;DHT22;939;51.426;6.972;2023-07-22T12:06:41;27.00;42.10
1878;DHT22;939;51.426;6.972;2023-07-22T12:09:08;26.90;40.20
1878;DHT22;939;51.426;6.972;2023-07-22T12:11:36;26.80;41.10
1878;DHT22;939;51.426;6.972;2023-07-22T12:14:07;26.30;38.80
1878;DHT22;939;51.426;6.972;2023-07-22T12:16:35;26.10;41.70
1878;DHT22;939;51.426;6.972;2023-07-22T12:19:03;26.00;40.70
1878;DHT22;939;51.426;6.972;2023-07-22T12:21:32;25.90;43.60
1878;DHT22;939;51.426;6.972;2023-07-22T12:23:59;25.80;42.70
1878;DHT22;939;51.426;6.972;2023-07-22T12:26:26;25.70;44.00
1878;DHT22;939;51.426;6.972;2023-07-22T12:28:54;25.30;46.70
1878;DHT22;939;51.426;6.972;2023-07-22T12:31:21;25.10;41.90
1878;DHT22;939;51.426;6.972;2023-07-22T12:33:48;25.00;48.00
1878;DHT22;939;51.426;6.972;2023-07-22T12:36:15;25.10;45.80
1878;DHT22;939;51.426;6.972;2023-07-22T12:38:43;24.90;47.90
1878;DHT22;939;51.426;6.972;2023-07-22T12:41:10;24.70;44.80
1878;DHT22;939;51.426;6.972;2023-07-22T12:43:37;24.50;46.80
1878;DHT22;939;51.426;6.972;2023-07-22T12:46:04;24.50;49.30
1878;DHT22;939;51.426;6.972;2023-07-22T12:48:31;24.60;45.70
1878;DHT22;939;51.426;6.972;2023-07-22T12:50:58;24.60;45.30
1878;DHT22;939;51.426;6.972;2023-07-22T12:53:26;24.50;44.40
1878;DHT22;939;51.426;6.972;2023-07-22T12:55:54;24.40;47.00
1878;DHT22;939;51.426;6.972;2023-07-22T12:58:21;24.40;54.60
1878;DHT22;939;51.426;6.972;2023-07-22T13:00:48;24.40;49.50
1878;DHT22;939;51.426;6.972;2023-07-22T13:03:15;24.20;47.60
1878;DHT22;939;51.426;6.972;2023-07-22T13:05:42;24.10;48.30
1878;DHT22;939;51.426;6.972;2023-07-22T13:08:09;23.90;47.90
1878;DHT22;939;51.426;6.972;2023-07-22T13:10:36;24.10;53.00
1878;DHT22;939;51.426;6.972;2023-07-22T13:13:06;24.20;52.20
1878;DHT22;939;51.426;6.972;2023-07-22T13:15:33;24.20;48.50
1878;DHT22;939;51.426;6.972;2023-07-22T13:18:00;23.90;46.20
1878;DHT22;939;51.426;6.972;2023-07-22T13:20:29;23.90;46.80
1878;DHT22;939;51.426;6.972;2023-07-22T13:22:56;23.80;48.40
1878;DHT22;939;51.426;6.972;2023-07-22T13:25:23;24.00;52.40
1878;DHT22;939;51.426;6.972;2023-07-22T13:27:50;24.10;47.70
1878;DHT22;939;51.426;6.972;2023-07-22T13:30:19;24.00;49.30
1878;DHT22;939;51.426;6.972;2023-07-22T13:32:46;24.10;49.20
1878;DHT22;939;51.426;6.972;2023-07-22T13:35:13;23.90;47.00
1878;DHT22;939;51.426;6.972;2023-07-22T13:37:40;23.90;46.10
1878;DHT22;939;51.426;6.972;2023-07-22T13:40:07;23.80;49.00
1878;DHT22;939;51.426;6.972;2023-07-22T13:42:37;23.90;47.40
1878;DHT22;939;51.426;6.972;2023-07-22T13:45:04;24.00;49.70
1878;DHT22;939;51.426;6.972;2023-07-22T13:47:33;23.80;47.30
1878;DHT22;939;51.426;6.972;2023-07-22T13:50:00;23.80;45.90
1878;DHT22;939;51.426;6.972;2023-07-22T13:52:27;23.80;46.00
1878;DHT22;939;51.426;6.972;2023-07-22T13:54:54;23.70;47.50
1878;DHT22;939;51.426;6.972;2023-07-22T13:57:21;23.70;46.90
1878;DHT22;939;51.426;6.972;2023-07-22T13:59:48;23.70;45.70
1878;DHT22;939;51.426;6.972;2023-07-22T14:02:15;23.80;43.00
1878;DHT22;939;51.426;6.972;2023-07-22T14:04:45;23.70;42.20
1878;DHT22;939;51.426;6.972;2023-07-22T14:07:12;23.80;47.80
1878;DHT22;939;51.426;6.972;2023-07-22T14:09:39;23.80;42.50
1878;DHT22;939;51.426;6.972;2023-07-22T14:12:06;23.80;43.00
1878;DHT22;939;51.426;6.972;2023-07-22T14:14:33;23.90;45.20
1878;DHT22;939;51.426;6.972;2023-07-22T14:17:01;23.90;46.40
1878;DHT22;939;51.426;6.972;2023-07-22T14:19:29;23.90;46.10
1878;DHT22;939;51.426;6.972;2023-07-22T14:21:58;23.60;42.30
1878;DHT22;939;51.426;6.972;2023-07-22T14:24:25;23.70;43.60
1878;DHT22;939;51.426;6.972;2023-07-22T14:26:52;23.70;44.90
1878;DHT22;939;51.426;6.972;2023-07-22T14:29:19;23.80;42.60
1878;DHT22;939;51.426;6.972;2023-07-22T14:31:46;23.70;42.80
1878;DHT22;939;51.426;6.972;2023-07-22T14:34:13;23.70;47.80
1878;DHT22;939;51.426;6.972;2023-07-22T14:36:40;23.60;45.40
1878;DHT22;939;51.426;6.972;2023-07-22T14:39:08;23.70;42.90
1878;DHT22;939;51.426;6.972;2023-07-22T14:41:35;23.80;42.20
1878;DHT22;939;51.426;6.972;2023-07-22T14:44:02;23.70;41.50
1878;DHT22;939;51.426;6.972;2023-07-22T14:46:29;23.80;44.80
1878;DHT22;939;51.426;6.972;2023-07-22T14:48:56;23.80;44.40
1878;DHT22;939;51.426;6.972;2023-07-22T14:51:23;23.80;45.70
1878;DHT22;939;51.426;6.972;2023-07-22T14:53:50;23.80;47.10
1878;DHT22;939;51.426;6.972;2023-07-22T14:56:18;23.70;43.80
1878;DHT22;939;51.426;6.972;2023-07-22T14:58:45;23.60;42.90
1878;DHT22;939;51.426;6.972;2023-07-22T15:01:14;23.60;44.60
1878;DHT22;939;51.426;6.972;2023-07-22T15:03:41;23.60;43.60
1878;DHT22;939;51.426;6.972;2023-07-22T15:06:08;23.40;44.90
1878;DHT22;939;51.426;6.972;2023-07-22T15:08:35;23.30;45.90
1878;DHT22;939;51.426;6.972;2023-07-22T15:11:02;23.30;46.10
1878;DHT22;939;51.426;6.972;2023-07-22T15:13:30;23.40;46.30
1878;DHT22;939;51.426;6.972;2023-07-22T15:15:57;23.50;46.20
1878;DHT22;939;51.426;6.972;2023-07-22T15:18:24;23.60;45.80
1878;DHT22;939;51.426;6.972;2023-07-22T15:20:51;23.60;46.80
1878;DHT22;939;51.426;6.972;2023-07-22T15:23:18;23.60;47.00
1878;DHT22;939;51.426;6.972;2023-07-22T15:25:45;23.50;47.40
1878;DHT22;939;51.426;6.972;2023-07-22T15:28:12;23.50;45.40
1878;DHT22;939;51.426;6.972;2023-07-22T15:30:41;23.60;47.30
1878;DHT22;939;51.426;6.972;2023-07-22T15:33:07;23.70;47.70
1878;DHT22;939;51.426;6.972;2023-07-22T15:35:35;23.70;48.20
1878;DHT22;939;51.426;6.972;2023-07-22T15:38:01;23.70;46.50
1878;DHT22;939;51.426;6.972;2023-07-22T15:40:28;23.60;46.80
1878;DHT22;939;51.426;6.972;2023-07-22T15:42:55;23.40;50.20
1878;DHT22;939;51.426;6.972;2023-07-22T15:45:22;23.30;49.50
1878;DHT22;939;51.426;6.972;2023-07-22T15:47:50;23.30;48.50
1878;DHT22;939;51.426;6.972;2023-07-22T15:50:17;23.30;47.40
1878;DHT22;939;51.426;6.972;2023-07-22T15:52:44;23.20;47.80
1878;DHT22;939;51.426;6.972;2023-07-22T15:55:11;23.00;46.40
1878;DHT22;939;51.426;6.972;2023-07-22T15:57:39;23.00;48.40
1878;DHT22;939;51.426;6.972;2023-07-22T16:00:08;23.00;48.10
1878;DHT22;939;51.426;6.972;2023-07-22T16:02:36;22.90;46.80
1878;DHT22;939;51.426;6.972;2023-07-22T16:05:05;23.00;49.70
1878;DHT22;939;51.426;6.972;2023-07-22T16:07:32;22.90;47.20
1878;DHT22;939;51.426;6.972;2023-07-22T16:09:59;22.80;49.50
1878;DHT22;939;51.426;6.972;2023-07-22T16:12:26;23.00;47.00
1878;DHT22;939;51.426;6.972;2023-07-22T16:14:54;22.90;48.20
1878;DHT22;939;51.426;6.972;2023-07-22T16:17:21;22.90;48.80
1878;DHT22;939;51.426;6.972;2023-07-22T16:19:47;23.00;49.80
1878;DHT22;939;51.426;6.972;2023-07-22T16:22:16;23.10;47.90
1878;DHT22;939;51.426;6.972;2023-07-22T16:24:43;23.00;48.40
1878;DHT22;939;51.426;6.972;2023-07-22T16:27:10;23.00;49.50
1878;DHT22;939;51.426;6.972;2023-07-22T16:29:38;23.00;50.60
1878;DHT22;939;51.426;6.972;2023-07-22T16:32:07;23.00;51.20
1878;DHT22;939;51.426;6.972;2023-07-22T16:34:34;22.80;48.60
1878;DHT22;939;51.426;6.972;2023-07-22T16:37:01;22.80;48.50
1878;DHT22;939;51.426;6.972;2023-07-22T16:39:29;22.70;48.30
1878;DHT22;939;51.426;6.972;2023-07-22T16:41:56;22.80;48.40
1878;DHT22;939;51.426;6.972;2023-07-22T16:44:24;22.80;50.90
1878;DHT22;939;51.426;6.972;2023-07-22T16:46:51;22.70;49.20
1878;DHT22;939;51.426;6.972;2023-07-22T16:49:18;22.80;51.10
1878;DHT22;939;51.426;6.972;2023-07-22T16:51:45;22.70;50.80
1878;DHT22;939;51.426;6.972;2023-07-22T16:54:12;22.80;53.60
1878;DHT22;939;51.426;6.972;2023-07-22T16:56:41;22.80;48.90
1878;DHT22;939;51.426;6.972;2023-07-22T16:59:08;22.80;50.50
1878;DHT22;939;51.426;6.972;2023-07-22T17:01:35;22.70;49.20
1878;DHT22;939;51.426;6.972;2023-07-22T17:04:04;22.60;49.40
1878;DHT22;939;51.426;6.972;2023-07-22T17:06:33;22.60;52.80
1878;DHT22;939;51.426;6.972;2023-07-22T17:09:00;22.50;49.80
1878;DHT22;939;51.426;6.972;2023-07-22T17:11:27;22.40;50.20
1878;DHT22;939;51.426;6.972;2023-07-22T17:13:56;22.50;49.40
1878;DHT22;939;51.426;6.972;2023-07-22T17:16:23;22.50;50.50
1878;DHT22;939;51.426;6.972;2023-07-22T17:18:49;22.50;50.20
1878;DHT22;939;51.426;6.972;2023-07-22T17:21:16;22.50;53.00
1878;DHT22;939;51.426;6.972;2023-07-22T17:23:43;22.60;51.10
1878;DHT22;939;51.426;6.972;2023-07-22T17:26:10;22.40;53.40
1878;DHT22;939;51.426;6.972;2023-07-22T17:28:38;22.40;50.80
1878;DHT22;939;51.426;6.972;2023-07-22T17:31:07;22.40;52.80
1878;DHT22;939;51.426;6.972;2023-07-22T17:33:34;22.40;51.10
1878;DHT22;939;51.426;6.972;2023-07-22T17:36:01;22.40;52.80
1878;DHT22;939;51.426;6.972;2023-07-22T17:38:34;22.40;52.70
1878;DHT22;939;51.426;6.972;2023-07-22T17:41:01;22.30;53.10
1878;DHT22;939;51.426;6.972;2023-07-22T17:43:27;22.40;52.20
1878;DHT22;939;51.426;6.972;2023-07-22T17:45:54;22.40;53.70
1878;DHT22;939;51.426;6.972;2023-07-22T17:48:23;22.40;54.60
1878;DHT22;939;51.426;6.972;2023-07-22T17:50:50;22.30;53.40
1878;DHT22;939;51.426;6.972;2023-07-22T17:53:17;22.30;55.10
1878;DHT22;939;51.426;6.972;2023-07-22T17:55:43;22.20;52.60
1878;DHT22;939;51.426;6.972;2023-07-22T17:58:10;22.10;52.70
1878;DHT22;939;51.426;6.972;2023-07-22T18:00:37;22.10;53.50
1878;DHT22;939;51.426;6.972;2023-07-22T18:03:04;22.10;52.60
1878;DHT22;939;51.426;6.972;2023-07-22T18:05:32;22.10;53.30
1878;DHT22;939;51.426;6.972;2023-07-22T18:07:59;22.10;53.40
1878;DHT22;939;51.426;6.972;2023-07-22T18:10:27;22.00;53.40
1878;DHT22;939;51.426;6.972;2023-07-22T18:12:53;22.00;52.80
1878;DHT22;939;51.426;6.972;2023-07-22T18:15:20;22.00;52.80
1878;DHT22;939;51.426;6.972;2023-07-22T18:17:47;21.80;54.10
1878;DHT22;939;51.426;6.972;2023-07-22T18:20:14;21.80;54.00
1878;DHT22;939;51.426;6.972;2023-07-22T18:22:43;21.80;53.50
1878;DHT22;939;51.426;6.972;2023-07-22T18:25:09;21.70;53.70
1878;DHT22;939;51.426;6.972;2023-07-22T18:27:36;21.70;53.20
1878;DHT22;939;51.426;6.972;2023-07-22T18:30:04;21.80;54.70
1878;DHT22;939;51.426;6.972;2023-07-22T18:32:31;21.80;54.50
1878;DHT22;939;51.426;6.972;2023-07-22T18:34:58;21.80;55.20
1878;DHT22;939;51.426;6.972;2023-07-22T18:37:25;21.70;54.90
1878;DHT22;939;51.426;6.972;2023-07-22T18:39:53;21.60;53.90
1878;DHT22;939;51.426;6.972;2023-07-22T18:42:20;21.60;53.50
1878;DHT22;939;51.426;6.972;2023-07-22T18:44:47;21.60;54.80
1878;DHT22;939;51.426;6.972;2023-07-22T18:47:15;21.60;52.70
1878;DHT22;939;51.426;6.972;2023-07-22T18:49:42;21.60;52.90
1878;DHT22;939;51.426;6.972;2023-07-22T18:52:10;21.60;52.40
1878;DHT22;939;51.426;6.972;2023-07-22T18:54:37;21.70;52.50
1878;DHT22;939;51.426;6.972;2023-07-22T18:57:08;21.50;52.00
1878;DHT22;939;51.426;6.972;2023-07-22T18:59:36;21.40;52.10
1878;DHT22;939;51.426;6.972;2023-07-22T19:02:04;21.50;52.80
1878;DHT22;939;51.426;6.972;2023-07-22T19:04:31;21.40;54.10
1878;DHT22;939;51.426;6.972;2023-07-22T19:06:59;21.40;53.90
1878;DHT22;939;51.426;6.972;2023-07-22T19:09:26;21.50;52.90
1878;DHT22;939;51.426;6.972;2023-07-22T19:11:52;21.50;55.00
1878;DHT22;939;51.426;6.972;2023-07-22T19:14:21;21.50;54.80
1878;DHT22;939;51.426;6.972;2023-07-22T19:16:51;21.50;53.90
1878;DHT22;939;51.426;6.972;2023-07-22T19:19:18;21.50;55.30
1878;DHT22;939;51.426;6.972;2023-07-22T19:21:45;21.40;53.50
1878;DHT22;939;51.426;6.972;2023-07-22T19:24:12;21.40;55.40
1878;DHT22;939;51.426;6.972;2023-07-22T19:26:39;21.40;53.70
1878;DHT22;939;51.426;6.972;2023-07-22T19:29:06;21.40;55.80
1878;DHT22;939;51.426;6.972;2023-07-22T19:31:34;21.40;55.30
1878;DHT22;939;51.426;6.972;2023-07-22T19:34:01;21.40;55.00
1878;DHT22;939;51.426;6.972;2023-07-22T19:36:28;21.40;55.20
1878;DHT22;939;51.426;6.972;2023-07-22T19:38:54;21.40;55.30
1878;DHT22;939;51.426;6.972;2023-07-22T19:41:21;21.40;56.70
1878;DHT22;939;51.426;6.972;2023-07-22T19:43:48;21.40;55.00
1878;DHT22;939;51.426;6.972;2023-07-22T19:46:17;21.40;55.40
1878;DHT22;939;51.426;6.972;2023-07-22T19:48:46;21.30;57.00
1878;DHT22;939;51.426;6.972;2023-07-22T19:51:14;21.30;58.40
1878;DHT22;939;51.426;6.972;2023-07-22T19:53:41;21.30;59.70
1878;DHT22;939;51.426;6.972;2023-07-22T19:56:10;21.20;61.20
1878;DHT22;939;51.426;6.972;2023-07-22T19:58:37;21.20;61.70
1878;DHT22;939;51.426;6.972;2023-07-22T20:01:05;21.20;66.00
1878;DHT22;939;51.426;6.972;2023-07-22T20:03:32;21.20;68.10
1878;DHT22;939;51.426;6.972;2023-07-22T20:06:03;21.10;72.30
1878;DHT22;939;51.426;6.972;2023-07-22T20:08:31;21.10;76.70
1878;DHT22;939;51.426;6.972;2023-07-22T20:10:58;21.10;80.10
1878;DHT22;939;51.426;6.972;2023-07-22T20:13:24;21.00;81.30
1878;DHT22;939;51.426;6.972;2023-07-22T23:06:16;18.80;99.90
